Time;durP1;ratioP1;P1;durP2;ratioP2;P2;SDS_P1;SDS_P2;PMS_P1;PMS_P2;Temp;Humidity;BMP_temperature;BMP_pressure;BME280_temperature;BME280_humidity;BME280_pressure;Samples;Min_cycle;Max_cycle;Signal;HPM_P1;HPM_P2
2023/06/29 00:00:23;;;;;;;14.27;9.93;;;20.80;99.90;;;;;;5041382;28;20216;-64
2023/06/29 00:02:50;;;;;;;15.03;10.60;;;20.80;99.90;;;;;;5020383;28;20212;-62
2023/06/29 00:05:21;;;;;;;16.20;10.93;;;20.80;1.00;;;;;;5040135;28;20604;-62
2023/06/29 00:07:48;;;;;;;14.47;10.60;;;20.80;99.90;;;;;;5041957;28;20211;-61
2023/06/29 00:10:16;;;;;;;13.97;10.20;;;20.80;99.90;;;;;;5041012;28;20196;-61
2023/06/29 00:12:43;;;;;;;14.57;10.73;;;20.80;1.00;;;;;;5040017;28;20202;-61
2023/06/29 00:15:10;;;;;;;13.70;10.50;;;20.80;92.90;;;;;;5039025;28;20299;-61
2023/06/29 00:17:37;;;;;;;13.50;11.10;;;20.70;99.90;;;;;;5044187;28;20216;-61
2023/06/29 00:20:09;;;;;;;14.53;10.83;;;20.70;51.10;;;;;;5030411;28;20199;-63
2023/06/29 00:22:40;;;;;;;16.73;11.93;;;20.70;64.70;;;;;;5029558;28;20196;-61
2023/06/29 00:25:08;;;;;;;17.60;11.43;;;20.70;99.90;;;;;;5038880;28;20312;-62
2023/06/29 00:27:35;;;;;;;14.97;10.33;;;20.80;99.90;;;;;;5041221;28;20199;-61
2023/06/29 00:30:02;;;;;;;16.13;11.97;;;20.90;40.40;;;;;;5041720;28;20197;-63
2023/06/29 00:32:29;;;;;;;14.80;10.73;;;20.90;1.00;;;;;;5022356;28;20656;-62
2023/06/29 00:34:56;;;;;;;14.43;11.53;;;21.00;1.00;;;;;;5039231;28;20729;-63
2023/06/29 00:37:23;;;;;;;15.37;11.73;;;20.90;99.90;;;;;;5037822;28;20297;-62
2023/06/29 00:39:50;;;;;;;17.47;11.90;;;20.80;99.90;;;;;;5038937;28;20196;-61
2023/06/29 00:42:17;;;;;;;15.67;11.77;;;20.70;99.90;;;;;;5026367;28;20723;-62
2023/06/29 00:44:46;;;;;;;16.90;12.47;;;20.80;1.00;;;;;;5035200;28;20255;-64
2023/06/29 00:47:13;;;;;;;17.40;12.33;;;20.70;1.00;;;;;;5044688;28;20207;-61
2023/06/29 00:49:41;;;;;;;16.30;11.17;;;20.70;1.00;;;;;;5041865;28;20605;-63
2023/06/29 00:52:08;;;;;;;22.07;12.37;;;20.70;1.00;;;;;;5042860;28;20212;-63
2023/06/29 00:54:35;;;;;;;16.23;12.20;;;20.70;1.00;;;;;;5034614;28;20250;-63
2023/06/29 00:57:02;;;;;;;14.50;11.60;;;20.70;1.00;;;;;;5038794;28;20253;-62
2023/06/29 00:59:28;;;;;;;16.47;11.63;;;20.70;1.00;;;;;;5041592;28;20294;-63
2023/06/29 01:01:55;;;;;;;15.57;11.90;;;20.80;1.00;;;;;;5026153;28;20558;-62
2023/06/29 01:04:25;;;;;;;14.70;11.47;;;20.80;1.00;;;;;;5017997;28;20309;-64
2023/06/29 01:07:02;;;;;;;15.67;11.83;;;20.80;1.00;;;;;;5021830;28;20552;-61
2023/06/29 01:09:30;;;;;;;17.30;11.97;;;20.80;1.00;;;;;;5030373;28;20235;-62
2023/06/29 01:11:58;;;;;;;19.23;12.63;;;20.80;1.00;;;;;;5030043;28;20208;-61
2023/06/29 01:14:27;;;;;;;15.67;11.37;;;20.80;1.00;;;;;;5034372;28;20233;-62
2023/06/29 01:16:56;;;;;;;16.83;11.77;;;20.70;1.00;;;;;;5038586;28;21787;-62
2023/06/29 01:19:28;;;;;;;14.17;11.97;;;20.60;1.00;;;;;;5048482;28;20223;-61
2023/06/29 01:22:17;;;;;;;16.20;11.90;;;20.60;1.00;;;;;;5046353;28;20218;-64
2023/06/29 01:24:45;;;;;;;21.07;12.17;;;20.70;1.00;;;;;;5023636;28;20235;-61
2023/06/29 01:27:13;;;;;;;17.07;11.93;;;20.70;1.00;;;;;;5044323;28;20286;-61
2023/06/29 01:29:41;;;;;;;14.67;10.67;;;20.70;99.90;;;;;;5043607;28;20204;-62
2023/06/29 01:32:10;;;;;;;16.20;11.97;;;20.70;1.00;;;;;;5022599;28;20211;-62
2023/06/29 01:34:38;;;;;;;17.57;12.20;;;20.70;1.00;;;;;;5023588;28;20220;-61
2023/06/29 01:37:09;;;;;;;17.00;11.63;;;20.70;1.00;;;;;;5025279;28;20215;-62
2023/06/29 01:40:06;;;;;;;16.47;11.70;;;20.80;1.00;;;;;;5042449;28;20551;-66
2023/06/29 01:42:35;;;;;;;18.47;12.40;;;20.70;1.00;;;;;;5036639;28;20319;-66
2023/06/29 01:45:04;;;;;;;17.03;11.67;;;20.70;99.90;;;;;;5043082;28;20196;-64
2023/06/29 01:47:31;;;;;;;13.50;11.07;;;20.70;1.00;;;;;;5036409;28;20208;-66
2023/06/29 01:50:00;;;;;;;16.03;11.80;;;20.70;1.00;;;;;;5041557;28;20223;-67
2023/06/29 01:52:27;;;;;;;14.73;11.13;;;20.80;1.00;;;;;;5039367;28;20319;-66
2023/06/29 01:54:54;;;;;;;16.33;12.23;;;20.70;1.00;;;;;;5043205;28;20568;-66
2023/06/29 01:57:21;;;;;;;15.27;11.27;;;20.70;1.00;;;;;;5045348;28;20195;-67
2023/06/29 01:59:48;;;;;;;17.07;12.20;;;20.60;1.00;;;;;;5026849;28;20550;-67
2023/06/29 02:02:15;;;;;;;16.57;11.73;;;20.50;1.00;;;;;;5024057;28;20413;-65
2023/06/29 02:04:42;;;;;;;17.33;11.50;;;20.60;1.00;;;;;;5035771;28;20241;-66
2023/06/29 02:07:09;;;;;;;16.80;11.13;;;20.60;1.00;;;;;;5035688;28;20282;-67
2023/06/29 02:09:35;;;;;;;14.73;11.37;;;20.50;99.90;;;;;;5040427;28;20210;-67
2023/06/29 02:12:03;;;;;;;16.33;10.97;;;20.50;1.00;;;;;;5045379;28;20576;-65
2023/06/29 02:14:30;;;;;;;13.83;10.13;;;20.50;1.00;;;;;;5041784;28;20196;-61
2023/06/29 02:16:56;;;;;;;17.33;10.93;;;20.50;1.00;;;;;;5041531;28;20228;-61
2023/06/29 02:19:23;;;;;;;16.57;11.50;;;20.50;1.00;;;;;;5046875;28;20213;-61
2023/06/29 02:21:50;;;;;;;15.03;11.03;;;20.50;1.00;;;;;;5045910;28;20265;-61
2023/06/29 02:24:17;;;;;;;16.53;11.10;;;20.40;1.00;;;;;;5039026;28;20215;-61
2023/06/29 02:26:44;;;;;;;16.93;11.03;;;20.50;1.00;;;;;;5041858;28;20212;-61
2023/06/29 02:29:11;;;;;;;16.47;12.63;;;20.60;1.00;;;;;;5043113;28;20192;-61
2023/06/29 02:31:37;;;;;;;16.40;11.13;;;20.60;1.00;;;;;;5031108;28;20207;-61
2023/06/29 02:34:04;;;;;;;17.73;11.23;;;20.70;1.00;;;;;;5028207;28;20262;-63
2023/06/29 02:36:31;;;;;;;16.53;12.13;;;20.70;1.00;;;;;;5024871;28;20299;-63
2023/06/29 02:38:58;;;;;;;16.67;11.43;;;20.50;1.00;;;;;;5041181;28;20559;-63
2023/06/29 02:41:25;;;;;;;14.60;11.73;;;20.50;1.00;;;;;;5026220;28;20243;-62
2023/06/29 02:43:52;;;;;;;18.43;11.93;;;20.40;1.00;;;;;;5040330;28;20208;-64
2023/06/29 02:46:20;;;;;;;18.77;14.00;;;20.40;1.00;;;;;;5044172;28;20197;-62
2023/06/29 02:48:46;;;;;;;16.43;12.10;;;20.40;1.00;;;;;;5032747;28;20220;-63
2023/06/29 02:51:13;;;;;;;15.33;11.97;;;20.30;28.30;;;;;;5033857;28;20200;-61
2023/06/29 02:53:40;;;;;;;17.00;12.83;;;20.30;99.90;;;;;;5037262;28;21415;-62
2023/06/29 02:56:07;;;;;;;17.50;12.23;;;20.30;1.00;;;;;;5037015;28;20262;-61
2023/06/29 02:58:34;;;;;;;18.10;12.63;;;20.30;1.00;;;;;;5041452;28;20212;-63
2023/06/29 03:01:01;;;;;;;19.23;12.47;;;20.20;99.90;;;;;;5041478;28;20208;-61
2023/06/29 03:03:28;;;;;;;17.57;12.67;;;20.20;99.90;;;;;;5032765;28;21103;-60
2023/06/29 03:05:55;;;;;;;17.77;12.30;;;20.20;99.90;;;;;;5019246;28;20245;-63
2023/06/29 03:08:22;;;;;;;18.23;13.17;;;20.30;99.90;;;;;;5039113;28;20208;-61
2023/06/29 03:10:48;;;;;;;14.63;12.07;;;20.40;99.90;;;;;;5043315;28;20219;-60
2023/06/29 03:13:15;;;;;;;15.93;11.67;;;20.30;1.00;;;;;;5037300;28;20212;-60
2023/06/29 03:15:42;;;;;;;16.43;12.43;;;20.30;1.00;;;;;;5044372;28;20286;-62
2023/06/29 03:18:09;;;;;;;17.83;13.03;;;20.30;99.90;;;;;;5043756;28;20239;-62
2023/06/29 03:20:37;;;;;;;19.13;14.37;;;20.30;99.90;;;;;;5046564;28;20261;-61
2023/06/29 03:23:03;;;;;;;19.67;13.77;;;20.30;99.90;;;;;;5035178;28;20200;-61
2023/06/29 03:25:30;;;;;;;22.00;12.90;;;20.20;1.00;;;;;;5040478;28;20609;-66
2023/06/29 03:27:57;;;;;;;23.13;14.27;;;20.20;99.90;;;;;;5042673;28;20196;-66
2023/06/29 03:30:24;;;;;;;19.73;13.87;;;20.10;99.90;;;;;;5038848;28;20604;-66
2023/06/29 03:32:52;;;;;;;17.90;14.20;;;20.20;1.00;;;;;;5022396;28;20326;-65
2023/06/29 03:35:20;;;;;;;18.43;14.57;;;20.30;1.00;;;;;;5021036;28;20283;-63
2023/06/29 03:37:47;;;;;;;20.70;14.13;;;20.30;99.90;;;;;;5040715;28;20675;-63
2023/06/29 03:40:14;;;;;;;18.27;13.73;;;20.30;99.90;;;;;;5041267;28;20649;-63
2023/06/29 03:42:41;;;;;;;20.77;15.23;;;20.40;99.90;;;;;;5036187;28;20208;-63
2023/06/29 03:45:08;;;;;;;18.80;14.10;;;20.20;99.90;;;;;;5037009;28;21931;-63
2023/06/29 03:47:34;;;;;;;19.97;14.07;;;20.20;1.00;;;;;;5020610;28;20291;-62
2023/06/29 03:50:01;;;;;;;21.03;14.90;;;20.20;99.90;;;;;;5039309;28;20297;-60
2023/06/29 03:52:28;;;;;;;21.53;15.37;;;20.30;1.00;;;;;;5025067;28;20199;-61
2023/06/29 03:54:55;;;;;;;21.17;14.93;;;20.30;1.00;;;;;;5036792;28;20205;-61
2023/06/29 03:57:22;;;;;;;21.40;16.03;;;20.30;99.90;;;;;;5040586;28;20213;-60
2023/06/29 03:59:49;;;;;;;20.30;15.40;;;20.30;1.00;;;;;;5041669;28;20258;-60
2023/06/29 04:02:16;;;;;;;20.37;15.50;;;20.30;1.00;;;;;;5031716;28;20531;-65
2023/06/29 04:04:43;;;;;;;22.93;15.27;;;20.20;1.00;;;;;;5040944;28;20239;-59
2023/06/29 04:07:10;;;;;;;25.93;16.57;;;20.10;1.00;;;;;;5028006;28;20211;-62
2023/06/29 04:09:37;;;;;;;23.17;16.17;;;20.30;1.00;;;;;;5039073;28;20222;-62
2023/06/29 04:12:05;;;;;;;25.40;16.30;;;20.30;1.00;;;;;;5041625;28;20572;-62
2023/06/29 04:14:32;;;;;;;21.73;17.10;;;20.30;1.00;;;;;;5036469;28;20197;-63
2023/06/29 04:16:58;;;;;;;19.37;15.00;;;20.30;1.00;;;;;;5038413;28;20886;-62
2023/06/29 04:19:25;;;;;;;25.07;16.50;;;20.40;1.00;;;;;;5040391;28;20218;-61
2023/06/29 04:21:52;;;;;;;20.37;15.83;;;20.30;1.00;;;;;;5023230;28;20599;-61
2023/06/29 04:24:19;;;;;;;23.83;16.83;;;20.20;1.00;;;;;;5036730;28;20215;-61
2023/06/29 04:26:46;;;;;;;24.17;16.73;;;20.30;99.90;;;;;;5040277;28;20200;-60
2023/06/29 04:29:13;;;;;;;24.97;17.10;;;20.40;1.00;;;;;;5024382;28;20567;-62
2023/06/29 04:31:40;;;;;;;23.57;16.00;;;20.40;1.00;;;;;;5031569;28;20204;-60
2023/06/29 04:34:07;;;;;;;25.20;17.10;;;20.30;1.00;;;;;;5037619;28;20220;-63
2023/06/29 04:36:34;;;;;;;22.17;17.43;;;20.30;1.00;;;;;;5037832;28;20204;-62
2023/06/29 04:39:01;;;;;;;23.33;16.17;;;20.30;1.00;;;;;;5038022;28;20212;-63
2023/06/29 04:41:33;;;;;;;24.10;16.83;;;20.30;1.00;;;;;;5020091;28;20220;-61
2023/06/29 04:44:01;;;;;;;26.30;16.17;;;20.30;1.00;;;;;;5037062;28;20299;-61
2023/06/29 04:46:28;;;;;;;24.87;17.07;;;20.10;20.30;;;;;;5022622;28;20196;-60
2023/06/29 04:48:55;;;;;;;23.93;17.13;;;20.10;99.90;;;;;;5038243;28;20204;-61
2023/06/29 04:51:22;;;;;;;24.13;17.33;;;20.30;1.00;;;;;;5040990;28;20200;-60
2023/06/29 04:53:49;;;;;;;20.67;16.47;;;20.30;1.00;;;;;;5038301;28;20204;-61
2023/06/29 04:56:16;;;;;;;24.97;17.63;;;20.20;99.90;;;;;;5038295;28;20208;-65
2023/06/29 04:58:42;;;;;;;23.67;17.93;;;20.30;99.90;;;;;;5039672;28;21126;-64
2023/06/29 05:01:09;;;;;;;22.63;17.03;;;20.30;99.90;;;;;;5033121;28;20211;-65
2023/06/29 05:03:36;;;;;;;22.77;16.83;;;20.30;1.00;;;;;;5035802;28;20661;-65
2023/06/29 05:06:03;;;;;;;27.23;17.53;;;20.30;1.00;;;;;;5009139;28;1094454;-67
2023/06/29 05:08:30;;;;;;;23.83;17.20;;;20.30;1.00;;;;;;5030362;28;20203;-66
2023/06/29 05:10:57;;;;;;;25.73;18.17;;;20.30;34.40;;;;;;5035434;28;20197;-66
2023/06/29 05:13:24;;;;;;;25.17;18.07;;;20.30;1.00;;;;;;5035047;28;20218;-65
2023/06/29 05:15:51;;;;;;;23.67;17.40;;;20.30;1.00;;;;;;5037902;28;20192;-66
2023/06/29 05:18:18;;;;;;;27.30;17.47;;;20.30;1.00;;;;;;5022151;28;20211;-67
2023/06/29 05:20:45;;;;;;;25.57;17.70;;;20.20;1.00;;;;;;5039113;28;20221;-67
2023/06/29 05:23:12;;;;;;;26.30;18.70;;;20.30;99.90;;;;;;5035552;28;20737;-65
2023/06/29 05:25:40;;;;;;;25.67;18.53;;;20.30;1.00;;;;;;5039525;28;20529;-66
2023/06/29 05:28:08;;;;;;;27.13;17.87;;;20.30;1.00;;;;;;5038669;28;20204;-66
2023/06/29 05:30:35;;;;;;;27.80;17.77;;;20.30;1.00;;;;;;5038282;28;20599;-65
2023/06/29 05:33:04;;;;;;;24.83;17.37;;;20.40;1.00;;;;;;5036206;28;20212;-66
2023/06/29 05:35:31;;;;;;;21.50;15.23;;;20.30;1.00;;;;;;5024185;28;20205;-66
2023/06/29 05:37:58;;;;;;;23.50;17.70;;;20.40;1.00;;;;;;5020107;28;20559;-66
2023/06/29 05:40:25;;;;;;;22.27;16.43;;;20.50;1.00;;;;;;5026613;28;20227;-67
2023/06/29 05:42:52;;;;;;;25.10;17.50;;;20.50;99.90;;;;;;5034746;28;20211;-63
2023/06/29 05:45:19;;;;;;;23.20;17.57;;;20.50;99.90;;;;;;5032986;28;20235;-63
2023/06/29 05:47:46;;;;;;;22.97;17.77;;;20.50;1.00;;;;;;4664376;28;9999867;-64
2023/06/29 05:50:13;;;;;;;21.67;16.60;;;20.50;99.90;;;;;;5011232;28;20204;-64
2023/06/29 05:52:39;;;;;;;27.77;18.13;;;20.50;99.90;;;;;;5020877;28;20212;-63
2023/06/29 05:55:06;;;;;;;26.67;17.33;;;20.40;1.00;;;;;;5027649;28;20231;-65
2023/06/29 05:57:33;;;;;;;25.63;17.30;;;20.50;1.00;;;;;;5027379;28;20685;-64
2023/06/29 06:00:04;;;;;;;23.10;16.93;;;20.40;99.90;;;;;;5009075;28;23031;-64
2023/06/29 06:02:31;;;;;;;24.43;17.70;;;20.50;1.00;;;;;;5007048;28;20201;-64
2023/06/29 06:04:58;;;;;;;24.03;17.10;;;20.40;1.00;;;;;;5028121;28;20330;-65
2023/06/29 06:07:29;;;;;;;22.70;16.40;;;20.60;99.90;;;;;;5030624;28;20635;-64
2023/06/29 06:09:56;;;;;;;24.20;16.07;;;20.60;1.00;;;;;;5031052;28;20287;-64
2023/06/29 06:12:23;;;;;;;23.30;15.67;;;20.70;1.00;;;;;;5034757;28;20695;-64
2023/06/29 06:14:51;;;;;;;21.83;15.80;;;20.70;1.00;;;;;;5015244;28;20211;-64
2023/06/29 06:17:17;;;;;;;23.80;16.03;;;20.60;1.00;;;;;;5035345;28;20211;-65
2023/06/29 06:19:44;;;;;;;24.23;15.67;;;20.70;1.00;;;;;;5034120;28;20239;-64
2023/06/29 06:22:11;;;;;;;22.27;16.07;;;20.70;99.90;;;;;;5038436;28;20199;-64
2023/06/29 06:24:38;;;;;;;19.73;16.03;;;20.80;99.90;;;;;;5037789;28;20184;-65
2023/06/29 06:27:05;;;;;;;25.33;16.10;;;20.90;99.90;;;;;;5035547;28;20667;-65
2023/06/29 06:29:32;;;;;;;23.30;15.63;;;20.80;1.00;;;;;;5037120;28;20274;-64
2023/06/29 06:31:59;;;;;;;22.90;15.80;;;20.80;21.50;;;;;;5032242;28;20238;-64
2023/06/29 06:34:30;;;;;;;24.10;15.80;;;20.70;1.00;;;;;;5034512;28;20691;-64
2023/06/29 06:36:58;;;;;;;24.60;15.30;;;20.80;1.00;;;;;;5026645;28;20755;-64
2023/06/29 06:39:25;;;;;;;23.67;15.20;;;20.90;1.00;;;;;;5039186;28;20667;-65
2023/06/29 06:41:51;;;;;;;22.30;15.63;;;21.00;1.00;;;;;;5038384;28;20195;-65
2023/06/29 06:44:19;;;;;;;23.00;15.93;;;21.00;1.00;;;;;;5032926;28;20203;-65
2023/06/29 06:46:46;;;;;;;23.23;15.63;;;21.00;1.00;;;;;;5016766;28;20234;-65
2023/06/29 06:49:13;;;;;;;23.30;14.53;;;21.10;99.90;;;;;;5017007;28;20393;-65
2023/06/29 06:51:40;;;;;;;24.37;15.40;;;21.30;78.50;;;;;;4999687;28;20303;-63
2023/06/29 06:54:07;;;;;;;21.57;14.57;;;21.40;1.00;;;;;;5026892;28;20752;-63
2023/06/29 06:56:34;;;;;;;18.53;13.93;;;21.60;1.00;;;;;;5024766;28;20204;-64
2023/06/29 06:59:01;;;;;;;19.97;14.83;;;21.60;1.00;;;;;;5006505;28;20323;-64
2023/06/29 07:01:28;;;;;;;21.80;14.47;;;21.70;1.00;;;;;;5003874;28;20235;-65
2023/06/29 07:03:55;;;;;;;20.53;14.70;;;22.00;1.00;;;;;;5023964;28;20216;-64
2023/06/29 07:06:22;;;;;;;17.93;14.40;;;22.10;99.90;;;;;;5026815;28;20232;-63
2023/06/29 07:08:49;;;;;;;20.83;13.40;;;22.10;1.00;;;;;;4997373;28;20200;-64
2023/06/29 07:11:16;;;;;;;18.97;13.23;;;22.30;99.90;;;;;;5002503;28;20230;-63
2023/06/29 07:13:43;;;;;;;18.97;13.60;;;22.40;1.00;;;;;;4994301;28;20227;-64
2023/06/29 07:16:10;;;;;;;16.30;12.40;;;22.40;1.00;;;;;;5023331;28;20767;-64
2023/06/29 07:18:37;;;;;;;19.00;13.67;;;22.30;1.00;;;;;;5024433;28;20215;-65
2023/06/29 07:21:03;;;;;;;16.43;12.50;;;22.30;1.00;;;;;;5017219;28;20387;-63
2023/06/29 07:23:33;;;;;;;16.30;12.20;;;22.10;1.00;;;;;;5017010;28;20270;-63
2023/06/29 07:26:04;;;;;;;19.33;12.37;;;22.20;1.00;;;;;;5007149;28;20205;-63
2023/06/29 07:28:30;;;;;;;18.37;12.83;;;22.10;1.00;;;;;;5026411;28;20200;-63
2023/06/29 07:30:57;;;;;;;19.80;13.80;;;22.10;1.00;;;;;;5028594;28;20204;-66
2023/06/29 07:33:24;;;;;;;19.57;12.50;;;22.10;1.00;;;;;;4998285;28;20200;-65
2023/06/29 07:35:51;;;;;;;18.40;13.30;;;22.20;1.00;;;;;;5027198;28;20748;-63
2023/06/29 07:38:18;;;;;;;20.13;13.40;;;22.30;1.00;;;;;;5024409;28;20298;-64
2023/06/29 07:40:45;;;;;;;18.53;12.27;;;22.40;1.00;;;;;;5021933;28;20228;-65
2023/06/29 07:43:15;;;;;;;19.53;12.97;;;22.40;1.00;;;;;;5025207;28;20286;-66
2023/06/29 07:45:42;;;;;;;17.70;12.30;;;22.50;1.00;;;;;;5010938;28;20523;-65
2023/06/29 07:48:10;;;;;;;17.83;13.13;;;22.40;1.00;;;;;;4999304;28;20204;-63
2023/06/29 07:50:38;;;;;;;18.33;13.03;;;22.30;1.00;;;;;;5007575;28;20207;-64
2023/06/29 07:53:05;;;;;;;19.27;13.13;;;22.40;1.00;;;;;;5011710;28;20849;-63
2023/06/29 07:55:32;;;;;;;16.63;13.37;;;22.50;1.00;;;;;;5007279;28;20262;-64
2023/06/29 07:57:59;;;;;;;20.83;13.40;;;22.70;1.00;;;;;;5017704;28;20234;-66
2023/06/29 08:00:29;;;;;;;17.87;13.27;;;22.90;1.00;;;;;;5009503;28;20558;-63
2023/06/29 08:02:55;;;;;;;21.03;13.60;;;22.90;1.00;;;;;;5020226;28;20230;-65
2023/06/29 08:05:23;;;;;;;20.07;14.03;;;23.00;1.00;;;;;;5015045;28;20254;-63
2023/06/29 08:07:53;;;;;;;18.80;13.60;;;23.20;1.00;;;;;;5013718;28;20594;-64
2023/06/29 08:10:20;;;;;;;18.40;13.67;;;23.00;99.90;;;;;;4977320;28;20739;-64
2023/06/29 08:12:47;;;;;;;17.93;12.50;;;22.90;99.90;;;;;;4987009;28;23347;-64
2023/06/29 08:15:14;;;;;;;18.17;13.57;;;23.00;99.90;;;;;;5011031;28;20264;-64
2023/06/29 08:17:41;;;;;;;19.37;12.83;;;22.90;99.90;;;;;;4998770;28;20215;-64
2023/06/29 08:20:12;;;;;;;18.87;13.70;;;22.90;99.90;;;;;;5007882;28;20305;-65
2023/06/29 08:22:43;;;;;;;18.63;12.80;;;22.80;99.90;;;;;;5021802;28;21060;-65
2023/06/29 08:25:09;;;;;;;19.77;12.83;;;22.70;1.00;;;;;;5016627;28;20276;-65
2023/06/29 08:27:36;;;;;;;19.13;13.47;;;22.60;99.90;;;;;;5017056;28;20347;-64
2023/06/29 08:30:04;;;;;;;16.70;12.17;;;22.80;99.90;;;;;;5015291;28;20257;-66
2023/06/29 08:32:30;;;;;;;16.10;11.90;;;22.80;99.90;;;;;;5003951;28;20205;-65
2023/06/29 08:34:57;;;;;;;18.60;13.10;;;22.80;99.90;;;;;;5004582;28;20214;-66
2023/06/29 08:37:24;;;;;;;18.23;12.53;;;22.70;99.90;;;;;;5005456;28;20364;-65
2023/06/29 08:39:51;;;;;;;18.43;13.07;;;22.50;99.90;;;;;;4997425;28;20258;-66
2023/06/29 08:42:19;;;;;;;17.50;12.80;;;22.60;99.90;;;;;;5005386;28;20207;-66
2023/06/29 08:44:46;;;;;;;17.23;12.17;;;22.70;99.90;;;;;;5006726;28;20227;-65
2023/06/29 08:47:15;;;;;;;17.17;12.07;;;22.90;99.90;;;;;;5015192;28;20371;-67
2023/06/29 08:49:43;;;;;;;20.47;12.90;;;22.90;99.90;;;;;;4986737;28;20445;-65
2023/06/29 08:52:15;;;;;;;20.40;12.87;;;22.80;99.90;;;;;;5021371;28;20320;-65
2023/06/29 08:54:43;;;;;;;19.13;12.73;;;22.70;99.90;;;;;;5015350;28;20207;-66
2023/06/29 08:57:10;;;;;;;17.27;12.37;;;22.70;99.90;;;;;;5015090;28;20533;-66
2023/06/29 08:59:38;;;;;;;16.67;12.50;;;22.70;99.90;;;;;;5010079;28;20199;-66
2023/06/29 09:02:06;;;;;;;18.37;12.37;;;22.60;99.90;;;;;;4997754;28;20772;-66
2023/06/29 09:04:33;;;;;;;16.00;11.70;;;22.60;99.90;;;;;;5006919;28;20324;-65
2023/06/29 09:07:03;;;;;;;15.67;11.80;;;22.50;99.90;;;;;;5012885;28;20876;-69
2023/06/29 09:09:30;;;;;;;14.83;11.70;;;22.70;99.90;;;;;;5018006;28;20212;-66
2023/06/29 09:11:59;;;;;;;15.07;10.60;;;22.90;99.90;;;;;;5019667;28;20204;-65
2023/06/29 09:14:30;;;;;;;14.27;11.03;;;23.10;99.90;;;;;;5017535;28;20752;-68
2023/06/29 09:16:58;;;;;;;14.90;10.77;;;23.00;99.90;;;;;;5019249;28;20282;-65
2023/06/29 09:19:25;;;;;;;14.70;11.40;;;23.00;99.90;;;;;;5014646;28;20230;-66
2023/06/29 09:21:52;;;;;;;15.93;11.10;;;22.90;99.90;;;;;;5016345;28;20593;-64
2023/06/29 09:24:20;;;;;;;14.83;10.87;;;23.10;53.30;;;;;;5012675;28;20192;-64
2023/06/29 09:26:53;;;;;;;16.07;11.90;;;23.20;1.00;;;;;;5014703;28;20208;-66
2023/06/29 09:29:21;;;;;;;16.70;12.10;;;23.10;10.40;;;;;;5006076;28;20290;-65
2023/06/29 09:31:56;;;;;;;17.43;12.33;;;22.90;94.50;;;;;;5018754;28;20192;-65
2023/06/29 09:34:25;;;;;;;15.33;11.43;;;22.90;99.90;;;;;;5013670;28;20218;-67
2023/06/29 09:36:53;;;;;;;18.10;13.17;;;22.90;99.90;;;;;;4993120;28;20434;-65
2023/06/29 09:39:21;;;;;;;16.63;11.37;;;22.70;99.90;;;;;;5000818;28;20214;-65
2023/06/29 09:41:49;;;;;;;18.57;12.57;;;22.70;99.90;;;;;;5025388;28;20219;-66
2023/06/29 09:44:21;;;;;;;17.47;13.47;;;22.60;99.90;;;;;;5018667;28;20636;-64
2023/06/29 09:46:49;;;;;;;17.40;13.40;;;22.70;1.00;;;;;;5018818;28;20701;-64
2023/06/29 09:49:19;;;;;;;20.13;13.47;;;22.80;99.90;;;;;;5018007;28;20265;-65
2023/06/29 09:51:50;;;;;;;18.87;13.27;;;22.80;1.00;;;;;;5013874;28;20833;-64
2023/06/29 09:54:19;;;;;;;17.47;12.57;;;23.00;1.00;;;;;;5000179;28;20197;-64
2023/06/29 09:56:48;;;;;;;17.00;12.93;;;22.90;99.90;;;;;;5019249;28;20211;-66
2023/06/29 09:59:17;;;;;;;19.83;13.30;;;23.00;99.90;;;;;;5015144;28;20434;-64
2023/06/29 10:01:45;;;;;;;19.87;13.03;;;23.10;99.90;;;;;;5019678;28;20775;-65
2023/06/29 10:04:12;;;;;;;19.90;13.87;;;23.10;99.90;;;;;;5012628;28;20654;-64
2023/06/29 10:07:08;;;;;;;19.27;14.67;;;23.00;62.20;;;;;;5009881;28;20334;-64
2023/06/29 10:09:39;;;;;;;20.20;13.87;;;23.00;99.90;;;;;;5017864;28;20847;-65
2023/06/29 10:12:10;;;;;;;20.10;14.40;;;23.00;99.90;;;;;;5015754;28;20487;-64
2023/06/29 10:14:38;;;;;;;19.07;13.70;;;23.20;99.90;;;;;;5018151;28;20204;-63
2023/06/29 10:17:11;;;;;;;21.33;14.83;;;23.10;99.90;;;;;;5011591;28;20742;-65
2023/06/29 10:19:42;;;;;;;19.80;13.73;;;23.00;99.90;;;;;;5012081;28;20200;-65
2023/06/29 10:22:12;;;;;;;15.80;12.90;;;23.00;99.90;;;;;;5013228;28;20219;-66
2023/06/29 10:24:43;;;;;;;20.27;15.20;;;23.30;99.90;;;;;;5020740;28;20271;-64
2023/06/29 10:27:12;;;;;;;20.23;14.77;;;23.20;74.80;;;;;;5018189;28;20204;-64
2023/06/29 10:29:46;;;;;;;21.67;15.30;;;23.30;99.90;;;;;;4996973;28;20200;-65
2023/06/29 10:32:32;;;;;;;21.50;15.60;;;23.20;1.00;;;;;;5016680;28;20203;-65
2023/06/29 10:35:02;;;;;;;22.17;15.83;;;23.20;99.90;;;;;;5011960;28;20207;-64
2023/06/29 10:37:36;;;;;;;24.73;16.37;;;23.30;99.90;;;;;;5019491;28;20265;-64
2023/06/29 10:40:10;;;;;;;24.57;16.20;;;23.30;27.50;;;;;;5011749;28;20188;-65
2023/06/29 10:42:36;;;;;;;22.30;15.53;;;23.20;17.30;;;;;;4990528;28;20605;-66
2023/06/29 10:45:16;;;;;;;24.83;16.17;;;23.30;23.50;;;;;;5015166;28;20207;-64
2023/06/29 10:47:43;;;;;;;22.17;16.30;;;23.40;99.90;;;;;;5008091;28;20200;-64
2023/06/29 10:50:10;;;;;;;24.90;17.07;;;23.40;99.90;;;;;;5017366;28;20230;-65
2023/06/29 10:52:42;;;;;;;22.10;15.47;;;23.30;99.90;;;;;;5013319;28;20798;-65
2023/06/29 10:55:17;;;;;;;27.23;17.47;;;23.30;99.90;;;;;;5013909;28;20352;-64
2023/06/29 10:57:46;;;;;;;22.67;16.30;;;23.40;1.00;;;;;;4999896;28;20216;-64
2023/06/29 11:00:15;;;;;;;22.77;16.23;;;23.50;8.80;;;;;;5011902;28;20216;-65
2023/06/29 11:02:42;;;;;;;23.57;15.93;;;23.60;1.20;;;;;;5012979;28;20250;-64
2023/06/29 11:05:20;;;;;;;26.90;17.57;;;23.70;60.10;;;;;;5021649;28;20685;-64
2023/06/29 11:07:53;;;;;;;23.10;16.47;;;23.60;45.70;;;;;;5018777;28;20282;-64
2023/06/29 11:10:21;;;;;;;28.03;16.50;;;23.80;99.90;;;;;;5022483;28;20284;-65
2023/06/29 11:12:54;;;;;;;22.73;17.43;;;23.90;1.00;;;;;;5025136;28;20834;-64
2023/06/29 11:15:22;;;;;;;24.77;16.63;;;24.00;42.80;;;;;;5022785;28;20215;-65
2023/06/29 11:17:50;;;;;;;23.27;16.33;;;24.00;49.40;;;;;;5021273;28;21387;-64
2023/06/29 11:20:20;;;;;;;21.83;16.30;;;23.90;38.50;;;;;;5004728;28;20234;-64
2023/06/29 11:22:51;;;;;;;23.93;16.47;;;23.70;61.20;;;;;;5013140;28;20211;-64
2023/06/29 11:25:18;;;;;;;23.77;17.10;;;23.50;1.00;;;;;;5021913;28;20673;-64
2023/06/29 11:27:45;;;;;;;26.33;18.30;;;23.50;96.60;;;;;;5028569;28;20216;-64
2023/06/29 11:30:12;;;;;;;22.97;17.73;;;23.40;1.00;;;;;;4994623;28;21014;-64
2023/06/29 11:32:42;;;;;;;25.97;18.13;;;23.20;1.00;;;;;;5026605;28;20632;-65
2023/06/29 11:35:10;;;;;;;26.23;18.90;;;23.20;5.90;;;;;;5020268;28;20447;-64
2023/06/29 11:37:39;;;;;;;25.73;18.40;;;23.20;95.60;;;;;;5005302;28;20655;-65
2023/06/29 11:40:19;;;;;;;23.97;17.97;;;23.30;45.00;;;;;;5014190;28;20690;-65
2023/06/29 11:42:49;;;;;;;26.47;17.50;;;23.50;55.00;;;;;;5019908;28;20378;-65
2023/06/29 11:45:17;;;;;;;28.57;17.93;;;23.80;17.10;;;;;;5003197;28;20211;-65
2023/06/29 11:47:49;;;;;;;26.07;19.43;;;23.80;91.30;;;;;;5021393;28;20196;-64
2023/06/29 11:50:17;;;;;;;27.50;17.97;;;23.90;17.70;;;;;;4998256;28;20692;-64
2023/06/29 11:52:44;;;;;;;29.53;19.57;;;23.90;1.00;;;;;;5018206;28;20220;-64
2023/06/29 11:55:13;;;;;;;28.30;18.57;;;24.00;1.00;;;;;;4995267;28;20766;-64
2023/06/29 11:57:42;;;;;;;25.83;17.90;;;23.80;1.00;;;;;;5004321;28;20197;-63
2023/06/29 12:00:15;;;;;;;26.80;19.40;;;23.90;1.00;;;;;;5021515;28;20273;-64
2023/06/29 12:02:43;;;;;;;27.60;19.27;;;24.00;74.20;;;;;;5003701;28;20211;-64
2023/06/29 12:05:10;;;;;;;33.33;20.70;;;24.30;1.00;;;;;;4989073;28;20241;-63
2023/06/29 12:07:42;;;;;;;29.83;19.93;;;24.60;1.00;;;;;;5013140;28;20211;-63
2023/06/29 12:10:13;;;;;;;28.73;19.63;;;24.70;1.00;;;;;;4988624;28;20294;-64
2023/06/29 12:12:48;;;;;;;27.93;19.27;;;24.80;1.00;;;;;;5011414;28;20199;-64
2023/06/29 12:15:24;;;;;;;27.27;20.60;;;25.10;1.00;;;;;;5003944;28;21151;-64
2023/06/29 12:17:58;;;;;;;27.20;20.33;;;25.20;1.00;;;;;;4987308;28;20831;-64
2023/06/29 12:20:27;;;;;;;28.60;20.53;;;24.70;1.00;;;;;;5008072;28;20198;-63
2023/06/29 12:22:54;;;;;;;28.10;19.77;;;24.50;1.00;;;;;;4985201;28;20478;-64
2023/06/29 12:25:22;;;;;;;31.47;21.67;;;24.50;1.00;;;;;;4990824;28;20202;-63
2023/06/29 12:27:50;;;;;;;30.27;21.63;;;24.40;1.00;;;;;;4982165;28;20297;-64
2023/06/29 12:30:20;;;;;;;33.07;24.00;;;24.40;1.00;;;;;;5002020;28;20207;-64
2023/06/29 12:32:49;;;;;;;29.73;22.17;;;24.30;1.00;;;;;;5000266;28;20247;-64
2023/06/29 12:35:18;;;;;;;32.83;23.40;;;24.50;1.00;;;;;;5009454;28;20201;-64
2023/06/29 12:37:45;;;;;;;34.00;23.27;;;24.60;1.00;;;;;;5012935;28;20184;-63